createdAt,value
2023-01-06T00:02:56.575Z,3.10
2023-01-06T00:06:12.277Z,2.83
2023-01-06T00:09:24.364Z,2.73
2023-01-06T00:12:36.474Z,2.48
2023-01-06T00:15:48.525Z,2.73
2023-01-06T00:19:04.718Z,2.70
2023-01-06T00:22:16.936Z,2.58
2023-01-06T00:25:29.096Z,2.63
2023-01-06T00:28:41.819Z,3.10
2023-01-06T00:31:53.910Z,2.28
2023-01-06T00:35:06.334Z,2.95
2023-01-06T00:38:18.645Z,2.90
2023-01-06T00:41:46.847Z,2.08
2023-01-06T00:44:59.339Z,1.70
2023-01-06T00:48:12.362Z,1.68
2023-01-06T00:51:24.373Z,2.20
2023-01-06T00:54:36.827Z,1.68
2023-01-06T00:57:50.152Z,1.80
2023-01-06T01:01:02.198Z,2.00
2023-01-06T01:04:15.566Z,2.00
2023-01-06T01:07:27.902Z,1.83
2023-01-06T01:10:40.969Z,2.03
2023-01-06T01:13:53.496Z,1.93
2023-01-06T01:17:06.258Z,2.00
2023-01-06T01:20:19.162Z,1.80
2023-01-06T01:23:31.152Z,1.80
2023-01-06T01:26:43.151Z,2.00
2023-01-06T01:29:55.344Z,2.38
2023-01-06T01:33:08.318Z,1.75
2023-01-06T01:36:23.258Z,2.10
2023-01-06T01:39:36.684Z,2.08
2023-01-06T01:42:49.739Z,1.73
2023-01-06T01:46:02.759Z,1.95
2023-01-06T01:49:20.200Z,1.53
2023-01-06T01:52:33.605Z,1.60
2023-01-06T01:55:46.308Z,1.65
2023-01-06T01:59:03.225Z,1.55
2023-01-06T02:02:16.467Z,1.65
2023-01-06T02:05:32.767Z,2.00
2023-01-06T02:08:51.832Z,1.58
2023-01-06T02:12:05.581Z,1.63
2023-01-06T02:15:27.968Z,2.35
2023-01-06T02:18:53.528Z,1.70
2023-01-06T02:22:24.735Z,2.00
2023-01-06T02:26:12.957Z,1.98
2023-01-06T02:33:27.540Z,1.85
2023-01-06T02:36:45.881Z,2.08
2023-01-06T02:40:13.556Z,1.88
2023-01-06T02:43:32.498Z,1.88
2023-01-06T02:47:03.272Z,1.70
2023-01-06T02:50:23.922Z,1.93
2023-01-06T02:53:42.641Z,1.60
2023-01-06T02:57:01.582Z,1.70
2023-01-06T03:00:21.081Z,1.55
2023-01-06T03:03:38.696Z,1.90
2023-01-06T03:06:56.586Z,1.68
2023-01-06T03:10:11.399Z,2.10
2023-01-06T03:13:29.746Z,1.88
2023-01-06T03:16:43.024Z,1.95
2023-01-06T03:19:55.580Z,1.55
2023-01-06T03:23:07.817Z,1.75
2023-01-06T03:26:23.257Z,1.90
2023-01-06T03:29:38.035Z,1.78
2023-01-06T03:32:59.061Z,1.70
2023-01-06T03:36:20.169Z,2.18
2023-01-06T03:39:39.898Z,1.65
2023-01-06T03:43:10.988Z,2.23
2023-01-06T03:46:32.764Z,2.08
2023-01-06T03:49:49.981Z,2.40
2023-01-06T03:56:23.603Z,2.30
2023-01-06T03:59:40.536Z,2.30
2023-01-06T04:02:53.729Z,2.10
2023-01-06T04:06:07.806Z,2.10
2023-01-06T04:09:20.074Z,2.00
2023-01-06T04:12:44.215Z,2.13
2023-01-06T04:15:58.251Z,1.93
2023-01-06T04:19:10.750Z,2.20
2023-01-06T04:22:22.861Z,2.38
2023-01-06T04:25:34.870Z,2.20
2023-01-06T04:28:48.641Z,2.65
2023-01-06T04:32:00.806Z,2.75
2023-01-06T04:35:14.926Z,2.38
2023-01-06T04:38:27.006Z,1.80
2023-01-06T04:41:38.834Z,2.40
2023-01-06T04:44:50.702Z,2.18
2023-01-06T04:48:02.613Z,2.75
2023-01-06T04:51:17.080Z,2.73
2023-01-06T04:54:29.738Z,2.68
2023-01-06T04:57:42.312Z,2.80
2023-01-06T05:00:54.224Z,3.00
2023-01-06T05:04:07.340Z,2.95
2023-01-06T05:07:19.329Z,3.08
2023-01-06T05:10:31.581Z,2.73
2023-01-06T05:13:44.267Z,2.95
2023-01-06T05:16:56.199Z,3.25
2023-01-06T05:20:08.575Z,3.33
2023-01-06T05:23:20.523Z,3.48
2023-01-06T05:26:33.957Z,3.18
2023-01-06T05:29:46.508Z,2.78
2023-01-06T05:32:58.578Z,3.28
2023-01-06T05:36:15.073Z,3.40
2023-01-06T05:39:27.267Z,3.65
2023-01-06T05:42:39.150Z,3.78
2023-01-06T05:45:51.425Z,3.75
2023-01-06T05:49:05.156Z,3.35
2023-01-06T05:52:17.144Z,3.80
2023-01-06T05:55:29.023Z,3.23
2023-01-06T05:58:41.864Z,3.60
2023-01-06T06:01:53.745Z,4.10
2023-01-06T06:05:05.769Z,3.73
2023-01-06T06:08:17.644Z,3.53
2023-01-06T06:11:29.486Z,3.50
2023-01-06T06:14:41.707Z,3.53
2023-01-06T06:17:53.737Z,3.50
2023-01-06T06:21:10.174Z,3.60
2023-01-06T06:24:22.051Z,4.15
2023-01-06T06:27:33.903Z,4.45
2023-01-06T06:30:45.844Z,4.03
2023-01-06T06:33:59.866Z,3.78
2023-01-06T06:37:12.640Z,3.98
2023-01-06T06:40:24.910Z,3.90
2023-01-06T06:43:36.865Z,4.10
2023-01-06T06:46:48.863Z,4.00
2023-01-06T06:50:00.985Z,3.80
2023-01-06T06:53:13.360Z,3.75
2023-01-06T06:56:26.420Z,3.83
2023-01-06T06:59:38.819Z,4.08
2023-01-06T07:02:53.574Z,4.85
2023-01-06T07:06:06.852Z,3.90
2023-01-06T07:09:19.035Z,4.38
2023-01-06T07:12:30.991Z,4.18
2023-01-06T07:15:43.244Z,4.90
2023-01-06T07:18:55.212Z,4.95
2023-01-06T07:22:07.752Z,4.93
2023-01-06T07:25:19.719Z,5.25
2023-01-06T07:28:33.641Z,4.33
2023-01-06T07:31:45.579Z,4.45
2023-01-06T07:34:57.568Z,4.53
2023-01-06T07:38:13.690Z,4.48
2023-01-06T07:41:25.877Z,5.00
2023-01-06T07:44:37.994Z,4.33
2023-01-06T07:47:50.183Z,3.95
2023-01-06T07:51:03.480Z,4.00
2023-01-06T07:54:16.245Z,4.30
2023-01-06T07:57:28.452Z,4.28
2023-01-06T08:00:42.039Z,5.43
2023-01-06T08:03:54.192Z,5.40
2023-01-06T08:07:06.191Z,4.83
2023-01-06T08:10:18.609Z,4.23
2023-01-06T08:13:30.701Z,4.83
2023-01-06T08:16:43.938Z,5.53
2023-01-06T08:19:55.938Z,5.45
2023-01-06T08:23:08.997Z,5.10
2023-01-06T08:26:23.056Z,4.63
2023-01-06T08:29:35.316Z,4.53
2023-01-06T08:32:47.292Z,4.53
2023-01-06T08:36:03.760Z,5.33
2023-01-06T08:39:16.458Z,5.50
2023-01-06T08:42:28.357Z,4.70
2023-01-06T08:45:43.933Z,4.23
2023-01-06T08:48:56.474Z,4.23
2023-01-06T08:52:09.121Z,4.03
2023-01-06T08:55:21.161Z,4.53
2023-01-06T08:58:35.893Z,4.30
2023-01-06T09:01:48.326Z,3.93
2023-01-06T09:05:00.602Z,3.55
2023-01-06T09:08:13.268Z,3.73
2023-01-06T09:11:25.767Z,3.15
2023-01-06T09:14:39.843Z,3.80
2023-01-06T09:17:51.976Z,4.05
2023-01-06T09:21:04.047Z,4.20
2023-01-06T09:24:19.889Z,4.28
2023-01-06T09:27:32.035Z,3.10
2023-01-06T09:30:46.048Z,3.20
2023-01-06T09:33:58.307Z,2.73
2023-01-06T09:37:10.206Z,2.35
2023-01-06T09:40:28.328Z,2.40
2023-01-06T09:43:50.284Z,2.98
2023-01-06T09:47:03.410Z,3.15
2023-01-06T09:50:21.720Z,2.65
2023-01-06T09:53:38.225Z,2.90
2023-01-06T09:56:55.803Z,2.60
2023-01-06T10:00:12.072Z,3.13
2023-01-06T10:03:26.386Z,2.63
2023-01-06T10:06:44.795Z,2.30
2023-01-06T10:10:05.928Z,2.33
2023-01-06T10:13:32.131Z,2.60
2023-01-06T10:16:56.009Z,2.48
2023-01-06T10:26:31.938Z,1.95
2023-01-06T10:29:45.909Z,1.80
2023-01-06T10:32:58.815Z,1.78
2023-01-06T10:36:18.413Z,1.80
2023-01-06T10:39:34.132Z,2.15
2023-01-06T10:43:03.733Z,1.73
2023-01-06T10:46:16.299Z,2.08
2023-01-06T10:49:28.568Z,2.10
2023-01-06T10:52:41.599Z,2.73
2023-01-06T10:55:59.039Z,2.10
2023-01-06T10:59:15.096Z,2.00
2023-01-06T11:02:31.069Z,2.30
2023-01-06T11:05:43.524Z,3.23
2023-01-06T11:08:55.762Z,2.68
2023-01-06T11:12:16.016Z,2.80
2023-01-06T11:15:33.937Z,2.73
2023-01-06T11:18:46.037Z,3.53
2023-01-06T11:21:58.191Z,3.95
2023-01-06T11:25:28.155Z,3.45
2023-01-06T11:28:40.797Z,3.23
2023-01-06T11:31:56.993Z,3.65
2023-01-06T11:35:12.049Z,3.83
2023-01-06T11:38:25.957Z,3.73
2023-01-06T11:41:41.739Z,4.40
2023-01-06T11:44:54.461Z,3.85
2023-01-06T11:48:07.612Z,3.98
2023-01-06T11:51:20.187Z,3.30
2023-01-06T11:54:41.602Z,3.35
2023-01-06T11:57:58.932Z,2.48
2023-01-06T12:01:19.928Z,2.73
2023-01-06T12:04:37.859Z,2.80
2023-01-06T12:07:57.106Z,3.20
2023-01-06T12:11:15.572Z,3.38
2023-01-06T12:20:33.312Z,3.18
2023-01-06T12:26:46.115Z,3.08
2023-01-06T12:30:01.575Z,3.55
2023-01-06T12:33:21.192Z,3.93
2023-01-06T12:36:40.218Z,3.30
2023-01-06T12:42:57.929Z,4.48
2023-01-06T12:46:15.661Z,4.20
2023-01-06T12:49:33.945Z,4.03
2023-01-06T12:52:51.067Z,4.95
2023-01-06T12:56:28.689Z,4.58
2023-01-06T12:59:51.346Z,4.25
2023-01-06T13:03:27.994Z,4.38
2023-01-06T13:06:52.354Z,4.55
2023-01-06T13:10:14.559Z,5.05
2023-01-06T13:13:53.530Z,5.55
2023-01-06T13:17:11.113Z,4.83
2023-01-06T13:20:30.165Z,5.28
2023-01-06T13:24:02.237Z,5.78
2023-01-06T13:27:45.226Z,4.93
2023-01-06T13:31:45.726Z,4.93
2023-01-06T13:35:27.802Z,4.48
2023-01-06T13:39:06.163Z,4.45
2023-01-06T13:42:23.990Z,4.65
2023-01-06T13:45:40.462Z,5.48
2023-01-06T13:48:57.159Z,4.80
2023-01-06T13:55:30.751Z,4.30
2023-01-06T13:58:47.798Z,5.08
2023-01-06T14:05:13.544Z,5.10
2023-01-06T14:08:27.486Z,5.23
2023-01-06T14:11:41.751Z,8.50
2023-01-06T14:15:08.022Z,6.28
2023-01-06T14:18:41.981Z,10.30
2023-01-06T14:21:57.038Z,6.08
2023-01-06T14:25:23.964Z,6.18
2023-01-06T14:28:39.474Z,5.63
2023-01-06T14:31:51.686Z,7.00
2023-01-06T14:35:07.324Z,6.60
2023-01-06T14:38:32.245Z,8.03
2023-01-06T14:41:49.537Z,15.58
2023-01-06T14:45:05.365Z,7.78
2023-01-06T14:48:22.736Z,8.38
2023-01-06T14:51:36.249Z,7.60
2023-01-06T14:57:51.278Z,8.60
2023-01-06T15:01:04.263Z,8.38
2023-01-06T15:04:31.735Z,7.85
2023-01-06T15:07:45.779Z,9.60
2023-01-06T15:10:59.020Z,9.23
2023-01-06T15:14:20.436Z,9.25
2023-01-06T15:17:32.538Z,9.28
2023-01-06T15:20:48.227Z,10.70
2023-01-06T15:24:03.621Z,10.50
2023-01-06T15:27:20.032Z,12.00
2023-01-06T15:30:36.902Z,12.85
2023-01-06T15:33:49.470Z,12.80
2023-01-06T15:37:03.280Z,14.48
2023-01-06T15:43:56.279Z,14.20
2023-01-06T15:47:26.990Z,14.28
2023-01-06T15:50:42.392Z,14.03
2023-01-06T15:54:00.438Z,16.13
2023-01-06T15:57:19.064Z,14.38
2023-01-06T16:00:35.174Z,17.28
2023-01-06T16:03:51.086Z,15.95
2023-01-06T16:07:03.322Z,17.20
2023-01-06T16:10:44.247Z,16.83
2023-01-06T16:20:01.001Z,18.73
2023-01-06T16:26:20.247Z,20.93
2023-01-06T16:32:40.278Z,25.68
2023-01-06T16:39:14.079Z,26.33
2023-01-06T16:42:48.282Z,23.00
2023-01-06T16:46:03.762Z,23.08
2023-01-06T16:49:18.745Z,27.15
2023-01-06T16:52:31.208Z,26.30
2023-01-06T16:55:45.682Z,27.98
2023-01-06T16:58:58.988Z,26.75
2023-01-06T17:02:21.310Z,26.88
2023-01-06T17:05:37.301Z,26.85
2023-01-06T17:08:50.238Z,22.15
2023-01-06T17:12:03.076Z,24.23
2023-01-06T17:15:18.415Z,24.50
2023-01-06T17:18:33.662Z,24.60
2023-01-06T17:21:47.331Z,23.98
2023-01-06T17:25:02.931Z,25.90
2023-01-06T17:28:25.420Z,25.20
2023-01-06T17:40:55.080Z,20.90
2023-01-06T17:44:12.009Z,20.52
2023-01-06T17:50:33.433Z,20.48
2023-01-06T18:00:29.380Z,27.18
2023-01-06T18:03:47.235Z,25.50
2023-01-06T18:07:01.574Z,23.75
2023-01-06T18:10:21.277Z,23.93
2023-01-06T18:13:38.954Z,23.65
2023-01-06T18:16:54.328Z,22.28
2023-01-06T18:20:08.442Z,23.20
2023-01-06T18:23:26.062Z,22.95
2023-01-06T18:26:42.987Z,22.05
2023-01-06T18:29:56.553Z,23.08
2023-01-06T18:33:16.685Z,22.63
2023-01-06T18:36:29.123Z,22.75
2023-01-06T18:39:47.888Z,23.10
2023-01-06T18:43:02.285Z,21.90
2023-01-06T18:46:21.134Z,22.50
2023-01-06T18:49:38.014Z,20.95
2023-01-06T18:52:52.739Z,22.90
2023-01-06T18:56:08.238Z,22.60
2023-01-06T18:59:27.136Z,21.65
2023-01-06T19:02:43.876Z,22.13
2023-01-06T19:05:58.494Z,21.90
2023-01-06T19:09:38.608Z,21.88
2023-01-06T19:12:50.730Z,21.08
2023-01-06T19:16:09.379Z,23.13
2023-01-06T19:19:46.629Z,23.35
2023-01-06T19:22:59.341Z,24.30
2023-01-06T19:26:18.423Z,24.05
2023-01-06T19:29:36.082Z,23.38
2023-01-06T19:32:48.861Z,23.02
2023-01-06T19:36:49.917Z,22.13
2023-01-06T19:40:08.352Z,23.95
2023-01-06T19:43:25.633Z,22.23
2023-01-06T19:46:40.562Z,22.05
2023-01-06T19:49:55.794Z,18.70
2023-01-06T19:53:07.994Z,19.53
2023-01-06T19:56:27.895Z,18.83
2023-01-06T19:59:42.041Z,19.70
2023-01-06T20:02:57.652Z,19.98
2023-01-06T20:06:11.121Z,19.30
2023-01-06T20:09:24.035Z,18.23
2023-01-06T20:12:36.276Z,17.50
2023-01-06T20:15:49.053Z,16.73
2023-01-06T20:19:01.343Z,18.80
2023-01-06T20:22:13.565Z,18.73
2023-01-06T20:25:25.976Z,18.43
2023-01-06T20:28:38.372Z,17.38
2023-01-06T20:31:50.617Z,16.98
2023-01-06T20:35:02.792Z,18.45
2023-01-06T20:38:15.574Z,17.20
2023-01-06T20:41:27.950Z,18.55
2023-01-06T20:44:40.078Z,17.85
2023-01-06T20:47:52.344Z,18.88
2023-01-06T20:51:04.623Z,17.43
2023-01-06T20:54:17.147Z,17.05
2023-01-06T20:57:29.393Z,17.68
2023-01-06T21:00:42.021Z,18.20
2023-01-06T21:03:54.816Z,20.28
2023-01-06T21:07:07.132Z,19.85
2023-01-06T21:10:19.881Z,17.23
2023-01-06T21:16:32.226Z,17.95
2023-01-06T21:25:44.522Z,20.93
2023-01-06T21:28:57.871Z,21.73
2023-01-06T21:35:11.115Z,21.48
2023-01-06T21:38:23.393Z,21.50
2023-01-06T21:41:50.320Z,21.90
2023-01-06T21:45:02.260Z,21.98
2023-01-06T21:48:15.788Z,24.95
2023-01-06T21:51:27.872Z,23.48
2023-01-06T21:54:40.468Z,24.50
2023-01-06T21:57:52.671Z,25.63
2023-01-06T22:01:04.809Z,24.83
2023-01-06T22:04:17.015Z,27.13
2023-01-06T22:07:29.503Z,28.93
2023-01-06T22:10:43.674Z,27.70
2023-01-06T22:13:56.349Z,31.83
2023-01-06T22:17:10.513Z,32.55
2023-01-06T22:20:23.342Z,27.80
2023-01-06T22:23:37.541Z,27.13
2023-01-06T22:26:49.656Z,25.93
2023-01-06T22:30:02.250Z,25.28
2023-01-06T22:33:15.514Z,24.88
2023-01-06T22:36:27.424Z,21.77
2023-01-06T22:39:39.348Z,26.30
2023-01-06T22:42:51.666Z,22.43
2023-01-06T22:46:04.094Z,20.30
2023-01-06T22:49:16.005Z,22.05
2023-01-06T22:52:28.080Z,22.58
2023-01-06T22:55:40.143Z,20.45
2023-01-06T22:58:52.313Z,20.08
2023-01-06T23:02:04.746Z,21.95
2023-01-06T23:05:18.596Z,20.85
2023-01-06T23:08:34.336Z,19.90
2023-01-06T23:11:46.487Z,18.33
2023-01-06T23:14:58.598Z,17.80
2023-01-06T23:21:13.860Z,17.23
2023-01-06T23:24:26.302Z,15.00
2023-01-06T23:44:52.407Z,14.63
2023-01-06T23:48:04.300Z,12.93
2023-01-06T23:51:18.484Z,12.38
2023-01-06T23:54:30.565Z,12.55
2023-01-06T23:57:42.527Z,12.70
